Lionhead Wind

Lionhead weather stationLocated on Lionhead Ridge near West Yellowstone. Use the nearest SNOTEL station for snow depth data: Madison Plateau. The data on this page is also available to view at dataGarrison.com.

Elevation
9420ft
Jump to table bottom
Date Time Temperature
deg F
RH, % Wind Speed Wind Gust Wind Direction Pressure Light
12/07/22 03:00 8.7 95 16 22 SW - 222 713.960 0
12/07/22 02:00 8.9 95 19 27 SW - 225 713.740 0
12/07/22 01:00 8.8 95 20 30 SW - 225 713.340 0
12/07/22 00:00 8.7 95 20 28 SW - 225 713.240 0
12/06/22 23:00 8.8 95 19 30 SW - 219 713.140 0
12/06/22 22:00 8.6 95 25 39 SW - 226 712.560 0
12/06/22 21:00 8.3 95 22 33 SW - 226 712.080 0
12/06/22 20:00 8.2 95 21 32 SW - 236 712.020 0
12/06/22 19:00 7.7 95 29 40 SW - 230 710.480 0
12/06/22 18:00 8.0 95 28 39 SW - 223 709.660 0
12/06/22 17:00 8.4 95 24 35 SW - 222 711.040 0
12/06/22 16:00 8.2 95 23 32 SW - 222 709.700 0
12/06/22 15:00 8.6 95 22 32 SW - 222 709.880 0
12/06/22 14:00 9.2 95 22 31 SW - 226 709.420 0
12/06/22 13:00 10.4 95 23 31 SW - 226 709.660 0
12/06/22 12:00 9.5 95 17 25 SW - 237 709.740 0
12/06/22 11:00 10.8 96 12 17 W - 251 710.620 0
12/06/22 10:00 8.6 95 20 27 SW - 241 710.080 0
12/06/22 09:00 6.6 94 23 30 SW - 227 709.220 0
12/06/22 08:00 6.1 94 21 30 SW - 223 708.760 0
12/06/22 07:00 6.2 94 19 27 SW - 218 708.780 0
12/06/22 06:00 6.2 94 16 27 SW - 215 708.460 0
12/06/22 05:00 6.4 94 14 21 SW - 209 708.380 0
12/06/22 04:00 7.0 94 13 22 SW - 206 708.440 0
12/06/22 03:00 7.4 95 16 25 SW - 209 708.120 0
12/06/22 02:00 7.9 95 12 19 SW - 205 708.240 0
12/06/22 01:00 8.5 95 17 25 SW - 208 708.180 0
12/06/22 00:00 8.2 95 14 19 SW - 209 707.780 0
12/05/22 23:00 8.2 95 12 23 SW - 239 708.080 0
12/05/22 22:00 7.9 95 12 26 SW - 213 707.680 0
12/05/22 21:00 7.8 95 10 15 S - 187 707.720 0
12/05/22 20:00 8.0 95 11 20 S - 187 707.820 0
12/05/22 19:00 8.1 95 8 14 S - 202 707.580 0
12/05/22 18:00 8.9 95 9 17 SW - 204 707.900 0
12/05/22 17:00 10.1 96 11 18 SW - 212 707.720 0
12/05/22 16:00 11.5 96 14 24 SW - 206 707.620 0
12/05/22 15:00 12.8 97 12 23 SW - 205 707.420 0
12/05/22 14:00 14.6 97 11 18 SW - 205 707.720 0
12/05/22 13:00 15.1 97 13 22 SW - 209 707.800 0
12/05/22 12:00 14.0 97 9 14 SW - 211 708.700 0
12/05/22 11:00 14.6 97 10 17 SW - 216 709.140 0
12/05/22 10:00 13.6 97 10 16 SW - 220 709.580 0
12/05/22 09:00 13.3 96 12 24 SW - 240 709.600 0
12/05/22 08:00 13.3 96 14 20 W - 250 709.140 0
12/05/22 07:00 13.8 97 15 22 SW - 246 708.760 0
12/05/22 06:00 13.9 97 8 20 W - 265 708.940 0
12/05/22 05:00 14.1 97 4 23 NE - 41 708.500 0
12/05/22 04:00 15.2 97 10 26 W - 263 708.740 0
12/05/22 03:00 15.4 97 22 34 SW - 247 708.160 0
12/05/22 02:00 16.0 97 23 34 SW - 233 707.320 0